METAR Data
IDs: Format: Raw Decoded Include TAF

Data at: 0230 UTC 25 Feb 2021

EKAH 250220Z AUTO 20006KT 140V250 9999 BKN099/// 11/08 Q1020